Time;durP1;ratioP1;P1;durP2;ratioP2;P2;SDS_P1;SDS_P2;PMS_P1;PMS_P2;Temp;Humidity;BMP_temperature;BMP_pressure;BME280_temperature;BME280_humidity;BME280_pressure;Samples;Min_cycle;Max_cycle;Signal;HPM_P1;HPM_P2
2022/11/05 00:17:03;;;;;;;6.80;3.03;;;6.30;90.50;;;;;;5034246;28;20413;-44
2022/11/05 00:19:29;;;;;;;9.65;3.42;;;6.30;90.40;;;;;;5033069;28;20025;-46
2022/11/05 00:27:32;;;;;;;10.02;3.10;;;6.20;90.40;;;;;;5033744;28;20040;-43
2022/11/05 00:29:59;;;;;;;13.07;3.75;;;6.20;90.50;;;;;;5019430;28;20033;-47
2022/11/05 00:32:26;;;;;;;10.48;2.88;;;6.20;90.50;;;;;;5046082;28;20122;-44
2022/11/05 00:34:53;;;;;;;10.88;3.55;;;6.20;90.50;;;;;;5052560;28;20552;-46
2022/11/05 00:37:23;;;;;;;10.55;4.15;;;6.20;90.40;;;;;;5036721;28;20025;-43
2022/11/05 00:39:51;;;;;;;;;;;6.20;90.60;;;;;;5034292;28;20034;-43
2022/11/05 00:45:13;;;;;;;8.38;2.97;;;6.20;90.90;;;;;;5033663;28;20048;-46
2022/11/05 00:50:30;;;;;;;12.40;3.08;;;6.40;91.20;;;;;;5027274;28;20124;-45
2022/11/05 00:53:01;;;;;;;12.75;3.70;;;6.50;91.30;;;;;;5035640;28;20049;-45
2022/11/05 00:55:48;;;;;;;7.40;2.85;;;6.60;91.40;;;;;;5034260;28;20060;-45
2022/11/05 00:58:19;;;;;;;7.65;2.80;;;6.70;91.40;;;;;;5038641;28;20025;-46
2022/11/05 01:00:48;;;;;;;4.97;2.55;;;6.80;91.40;;;;;;5053237;28;20438;-47
2022/11/05 01:03:17;;;;;;;4.68;2.40;;;6.80;91.20;;;;;;5035390;28;20072;-46
2022/11/05 01:05:46;;;;;;;7.47;2.38;;;6.80;91.10;;;;;;5044460;28;20040;-46
2022/11/05 01:08:15;;;;;;;4.88;2.33;;;6.80;91.00;;;;;;5048047;28;20033;-45
2022/11/05 01:10:58;;;;;;;5.85;2.33;;;6.80;90.90;;;;;;5033110;28;20088;-48
2022/11/05 01:13:27;;;;;;;9.13;2.35;;;6.70;90.80;;;;;;5034963;28;20041;-46
2022/11/05 01:15:55;;;;;;;8.48;2.75;;;6.70;90.80;;;;;;5016414;28;20041;-47
2022/11/05 01:18:24;;;;;;;6.50;2.08;;;6.60;90.80;;;;;;5032119;28;20030;-46
2022/11/05 01:20:50;;;;;;;5.25;2.40;;;6.60;90.80;;;;;;5033768;28;20052;-46
2022/11/05 01:23:17;;;;;;;7.97;2.35;;;6.60;90.80;;;;;;5032059;28;20443;-46
2022/11/05 01:25:45;;;;;;;7.47;2.55;;;6.50;90.80;;;;;;5033205;28;20021;-46
2022/11/05 01:28:13;;;;;;;4.05;2.00;;;6.50;90.70;;;;;;5032226;28;20049;-47
2022/11/05 01:30:41;;;;;;;6.38;2.10;;;6.50;90.70;;;;;;5043322;28;20052;-46
2022/11/05 01:33:09;;;;;;;4.53;1.95;;;6.50;90.80;;;;;;5035171;28;20030;-48
2022/11/05 01:35:35;;;;;;;4.13;1.65;;;6.40;90.80;;;;;;5040849;28;20163;-46
2022/11/05 01:38:01;;;;;;;7.65;2.05;;;6.50;90.80;;;;;;5033179;28;20042;-48
2022/11/05 01:40:29;;;;;;;3.75;1.40;;;6.50;90.80;;;;;;5032982;28;20075;-49
2022/11/05 01:42:57;;;;;;;5.45;1.58;;;6.40;90.80;;;;;;5031820;28;20530;-49
2022/11/05 01:45:26;;;;;;;5.15;1.52;;;6.50;90.80;;;;;;5032934;28;20033;-46
2022/11/05 01:48:27;;;;;;;4.07;1.70;;;6.50;90.90;;;;;;5015548;28;20041;-45
2022/11/05 01:51:16;;;;;;;3.85;1.35;;;6.50;91.00;;;;;;5034692;28;20041;-46
2022/11/05 01:53:56;;;;;;;4.72;1.58;;;6.50;91.10;;;;;;5032627;28;20097;-46
2022/11/05 01:56:42;;;;;;;7.95;1.45;;;6.50;91.10;;;;;;5015549;28;20455;-48
2022/11/05 01:59:26;;;;;;;7.43;3.20;;;6.60;91.00;;;;;;5031582;28;20111;-47
2022/11/05 02:01:57;;;;;;;6.40;1.63;;;6.50;90.90;;;;;;5032753;28;20033;-47
2022/11/05 02:04:45;;;;;;;5.72;1.40;;;6.60;90.90;;;;;;5036793;28;20060;-46
2022/11/05 02:07:13;;;;;;;4.60;1.42;;;6.50;90.70;;;;;;5050408;28;20041;-46
2022/11/05 02:10:01;;;;;;;5.68;1.65;;;6.50;90.70;;;;;;5040979;28;20029;-49
2022/11/05 02:12:30;;;;;;;4.13;1.02;;;6.40;90.80;;;;;;5051282;28;20369;-46
2022/11/05 02:14:58;;;;;;;4.05;1.50;;;6.40;90.90;;;;;;5034601;28;20116;-49
2022/11/05 02:17:50;;;;;;;3.45;1.35;;;6.40;90.80;;;;;;5037277;28;20084;-49
2022/11/05 02:20:39;;;;;;;4.63;1.30;;;6.40;90.90;;;;;;5043977;28;20056;-51
2022/11/05 02:23:23;;;;;;;4.28;1.45;;;6.50;90.90;;;;;;5032628;28;20178;-47
2022/11/05 02:26:26;;;;;;;4.43;2.20;;;6.50;91.00;;;;;;5031467;28;20029;-47
2022/11/05 02:29:01;;;;;;;4.75;1.75;;;6.50;91.00;;;;;;5032301;28;20116;-47
2022/11/05 02:32:06;;;;;;;5.35;1.60;;;6.50;91.10;;;;;;5032237;28;20069;-47
2022/11/05 02:34:50;;;;;;;9.25;1.90;;;6.50;91.20;;;;;;5016794;28;20041;-50
2022/11/05 02:37:37;;;;;;;5.60;1.52;;;6.50;91.20;;;;;;5032549;28;20096;-51
2022/11/05 02:40:35;;;;;;;9.05;1.52;;;6.50;91.10;;;;;;5031632;28;20124;-51
2022/11/05 02:43:28;;;;;;;4.80;1.98;;;6.50;91.20;;;;;;5031927;28;20120;-51
2022/11/05 02:46:09;;;;;;;5.68;1.60;;;6.50;91.10;;;;;;5017205;28;20038;-47
2022/11/05 02:49:34;;;;;;;4.60;2.10;;;6.50;91.20;;;;;;5036260;28;20113;-50
2022/11/05 02:52:11;;;;;;;6.28;1.98;;;6.50;91.00;;;;;;5033536;28;20053;-48
2022/11/05 02:54:46;;;;;;;7.95;1.73;;;6.40;91.10;;;;;;5018143;28;20049;-48
2022/11/05 02:57:15;;;;;;;5.50;2.05;;;6.40;91.00;;;;;;5018592;28;20045;-51
2022/11/05 02:59:40;;;;;;;9.93;2.08;;;6.40;91.00;;;;;;5035856;28;20438;-49
2022/11/05 03:02:09;;;;;;;5.20;2.45;;;6.40;91.00;;;;;;5034442;28;20033;-47
2022/11/05 03:04:35;;;;;;;5.82;2.63;;;6.40;91.00;;;;;;5050868;28;20044;-49
2022/11/05 03:07:25;;;;;;;9.05;2.35;;;6.40;91.00;;;;;;5055453;28;20040;-49
2022/11/05 03:10:11;;;;;;;;;;;6.40;91.00;;;;;;5035985;28;20037;-52
2022/11/05 03:12:42;;;;;;;11.02;2.95;;;6.40;90.90;;;;;;5035437;28;19905;-47
2022/11/05 03:15:41;;;;;;;8.77;2.80;;;6.30;90.90;;;;;;5037257;28;20092;-50
2022/11/05 03:18:45;;;;;;;9.80;3.45;;;6.30;90.90;;;;;;5049999;28;20502;-49
2022/11/05 03:21:32;;;;;;;8.52;3.50;;;6.30;90.80;;;;;;5055464;28;20043;-54
2022/11/05 03:24:08;;;;;;;8.73;3.42;;;6.30;90.90;;;;;;5040760;28;20040;-49
2022/11/05 03:26:52;;;;;;;9.18;2.88;;;6.20;91.00;;;;;;5034131;28;20120;-51
2022/11/05 03:29:24;;;;;;;8.43;3.03;;;6.20;90.90;;;;;;5035239;28;20025;-53
2022/11/05 03:31:54;;;;;;;8.60;3.30;;;6.20;90.90;;;;;;5035245;28;20037;-48
2022/11/05 03:34:37;;;;;;;8.65;3.20;;;6.20;91.00;;;;;;5043832;28;20493;-50
2022/11/05 03:37:04;;;;;;;7.43;3.10;;;6.20;91.00;;;;;;5039586;28;20029;-54
2022/11/05 03:39:36;;;;;;;8.27;3.00;;;6.20;91.00;;;;;;5053649;28;20481;-51
2022/11/05 03:42:08;;;;;;;10.80;3.28;;;6.10;90.90;;;;;;5053999;28;20051;-50
2022/11/05 03:44:37;;;;;;;9.43;3.40;;;6.10;91.00;;;;;;5053978;28;20029;-50
2022/11/05 03:47:20;;;;;;;7.38;3.60;;;6.10;91.00;;;;;;5048095;28;20044;-50
2022/11/05 03:50:24;;;;;;;10.20;3.53;;;6.00;91.00;;;;;;5049125;28;20526;-50
2022/11/05 03:53:01;;;;;;;8.80;3.15;;;6.00;91.00;;;;;;5049818;28;20081;-50
2022/11/05 03:55:45;;;;;;;8.60;3.13;;;6.00;91.00;;;;;;5033561;28;20034;-53
2022/11/05 03:58:22;;;;;;;8.73;3.30;;;6.00;90.80;;;;;;5033424;28;20450;-51
2022/11/05 04:00:50;;;;;;;10.20;3.10;;;6.00;90.90;;;;;;5033225;28;20029;-53
2022/11/05 04:03:17;;;;;;;8.43;2.75;;;6.00;90.80;;;;;;5033503;28;20172;-52
2022/11/05 04:13:22;;;;;;;9.70;2.75;;;5.90;90.80;;;;;;5047348;28;20560;-51
2022/11/05 04:14:07;;;;;;;6.90;2.88;;;5.90;90.80;;;;;;5034036;28;20386;-52
2022/11/05 04:24:54;;;;;;;5.85;2.75;;;5.90;90.90;;;;;;5046768;28;20048;-49
2022/11/05 04:27:21;;;;;;;7.18;3.80;;;5.90;90.80;;;;;;5034135;28;20513;-48
2022/11/05 04:32:34;;;;;;;8.02;2.92;;;5.80;90.70;;;;;;5036409;28;20116;-51
2022/11/05 04:35:01;;;;;;;4.38;3.25;;;5.80;90.80;;;;;;5052778;28;20036;-51
2022/11/05 04:37:28;;;;;;;7.45;2.45;;;5.80;90.60;;;;;;5052309;28;20033;-52
2022/11/05 04:39:56;;;;;;;5.25;2.60;;;5.80;90.70;;;;;;5033936;28;20778;-53
2022/11/05 04:42:22;;;;;;;6.43;3.20;;;5.80;90.70;;;;;;5032967;28;20087;-49
2022/11/05 04:44:50;;;;;;;7.82;2.92;;;5.80;90.70;;;;;;5033700;28;20029;-49
2022/11/05 04:47:17;;;;;;;6.40;2.67;;;5.80;90.80;;;;;;5035013;28;20415;-49
2022/11/05 04:49:44;;;;;;;9.70;4.35;;;5.80;90.70;;;;;;5034291;28;20041;-49
2022/11/05 04:52:11;;;;;;;8.55;3.40;;;5.70;90.70;;;;;;5033538;28;20064;-52
2022/11/05 04:54:37;;;;;;;7.07;3.10;;;5.70;90.70;;;;;;5035957;28;20091;-52
2022/11/05 04:57:05;;;;;;;9.95;3.53;;;5.70;90.70;;;;;;5052318;28;20104;-50
2022/11/05 04:59:31;;;;;;;8.13;3.63;;;5.80;90.70;;;;;;5041404;28;20037;-49
2022/11/05 05:01:57;;;;;;;6.80;3.30;;;5.70;90.70;;;;;;5031914;28;20091;-52
2022/11/05 05:04:26;;;;;;;8.52;3.20;;;5.70;90.70;;;;;;5035673;28;20685;-53
2022/11/05 05:06:54;;;;;;;10.90;3.17;;;5.70;90.80;;;;;;5032046;28;20029;-52
2022/11/05 05:09:21;;;;;;;9.85;3.30;;;5.70;90.80;;;;;;5032954;28;20071;-51
2022/11/05 05:11:47;;;;;;;10.95;3.88;;;5.60;90.70;;;;;;5032689;28;20113;-51
2022/11/05 05:14:15;;;;;;;8.52;3.30;;;5.70;90.80;;;;;;5050994;28;20072;-51
2022/11/05 05:16:40;;;;;;;7.53;3.25;;;5.70;90.80;;;;;;5052031;28;20036;-52
2022/11/05 05:19:07;;;;;;;10.68;3.35;;;5.60;90.70;;;;;;5036731;28;20029;-52
2022/11/05 05:21:40;;;;;;;6.57;2.85;;;5.60;90.80;;;;;;5032185;28;20073;-49
2022/11/05 05:24:12;;;;;;;8.20;3.20;;;5.70;90.80;;;;;;5033616;28;20025;-51
2022/11/05 05:26:49;;;;;;;6.90;3.08;;;5.70;90.80;;;;;;5034934;28;20037;-49
2022/11/05 05:29:16;;;;;;;6.45;3.35;;;5.70;90.80;;;;;;5035473;28;20041;-50
2022/11/05 05:31:43;;;;;;;10.18;3.50;;;5.70;90.90;;;;;;5038849;28;20025;-53
2022/11/05 05:34:12;;;;;;;8.05;3.35;;;5.70;90.90;;;;;;5055724;28;20033;-51
2022/11/05 05:36:38;;;;;;;8.80;3.00;;;5.70;90.80;;;;;;5047367;28;20378;-52
2022/11/05 05:39:05;;;;;;;11.68;3.95;;;5.70;90.90;;;;;;5039634;28;20021;-50
2022/11/05 05:41:35;;;;;;;7.18;3.92;;;5.70;90.90;;;;;;5035495;28;20115;-50
2022/11/05 05:44:03;;;;;;;;;;;5.70;90.90;;;;;;5032887;28;20191;-51
2022/11/05 05:46:28;;;;;;;5.95;3.13;;;5.70;91.00;;;;;;5016385;28;19909;-52
2022/11/05 05:48:54;;;;;;;9.00;3.33;;;5.70;91.00;;;;;;5033854;28;20043;-51
2022/11/05 05:51:20;;;;;;;6.50;3.47;;;5.70;90.90;;;;;;5041343;28;20033;-49
2022/11/05 05:53:47;;;;;;;8.70;2.70;;;5.60;91.00;;;;;;5041955;28;20462;-51
2022/11/05 05:56:18;;;;;;;8.43;2.58;;;5.60;90.90;;;;;;5041287;28;20021;-51
2022/11/05 05:58:46;;;;;;;8.68;3.63;;;5.70;91.00;;;;;;5041741;28;20044;-49
2022/11/05 06:01:15;;;;;;;7.90;3.28;;;5.70;91.10;;;;;;5025491;28;20036;-52
2022/11/05 06:03:40;;;;;;;5.17;3.07;;;5.70;91.10;;;;;;5032704;28;20847;-54
2022/11/05 06:06:09;;;;;;;9.32;3.00;;;5.60;91.10;;;;;;5043205;28;20263;-48
2022/11/05 06:08:36;;;;;;;6.93;2.90;;;5.70;91.20;;;;;;5037953;28;20025;-49
2022/11/05 06:11:06;;;;;;;6.57;2.70;;;5.70;91.30;;;;;;5042511;28;20033;-50
2022/11/05 06:13:34;;;;;;;12.50;3.88;;;5.70;91.40;;;;;;5042069;28;20414;-51
2022/11/05 06:16:03;;;;;;;12.02;2.60;;;5.80;91.50;;;;;;5038479;28;20485;-51
2022/11/05 06:18:31;;;;;;;9.70;3.72;;;5.80;91.50;;;;;;5032319;28;20085;-48
2022/11/05 06:21:12;;;;;;;9.73;2.93;;;5.80;91.40;;;;;;5034891;28;20121;-49
2022/11/05 06:23:41;;;;;;;5.03;2.60;;;5.80;91.30;;;;;;5033609;28;20041;-53
2022/11/05 06:26:11;;;;;;;;;;;5.80;91.20;;;;;;5036950;28;20095;-50
2022/11/05 06:28:38;;;;;;;5.22;2.65;;;5.70;91.10;;;;;;5036209;28;19992;-49
2022/11/05 06:31:05;;;;;;;8.35;2.70;;;5.70;91.10;;;;;;5037774;28;20377;-54
2022/11/05 06:33:32;;;;;;;7.75;3.13;;;5.70;91.10;;;;;;5036540;28;20029;-50
2022/11/05 06:36:00;;;;;;;6.72;3.13;;;5.70;91.10;;;;;;5039960;28;20104;-52
2022/11/05 06:38:33;;;;;;;10.73;3.92;;;5.70;91.20;;;;;;5044367;28;20020;-53
2022/11/05 06:41:01;;;;;;;7.53;3.47;;;5.60;91.20;;;;;;5043260;28;20030;-50
2022/11/05 06:43:29;;;;;;;13.07;4.32;;;5.60;91.10;;;;;;5041499;28;20038;-49
2022/11/05 06:45:55;;;;;;;4.78;2.95;;;5.60;91.20;;;;;;5042779;28;20068;-48
2022/11/05 06:48:24;;;;;;;6.63;2.78;;;5.60;91.20;;;;;;5048125;28;20033;-53
2022/11/05 06:50:52;;;;;;;9.07;2.90;;;5.60;91.20;;;;;;5046436;28;20021;-49
2022/11/05 06:53:21;;;;;;;8.60;2.88;;;5.50;91.40;;;;;;5040435;28;20033;-50
2022/11/05 06:55:47;;;;;;;6.93;2.80;;;5.60;91.50;;;;;;5053653;28;20024;-49
2022/11/05 06:58:17;;;;;;;6.75;2.75;;;5.60;91.50;;;;;;5042897;28;20397;-48
2022/11/05 07:00:58;;;;;;;9.20;4.35;;;5.70;91.50;;;;;;5038594;28;20124;-49
2022/11/05 07:03:25;;;;;;;7.88;2.95;;;5.70;91.40;;;;;;5038018;28;20032;-52
2022/11/05 07:05:50;;;;;;;8.68;2.55;;;5.60;91.40;;;;;;5034568;28;20401;-48
2022/11/05 07:08:18;;;;;;;6.55;3.03;;;5.70;91.60;;;;;;5035656;28;20108;-52
2022/11/05 07:10:43;;;;;;;6.50;2.75;;;5.70;91.50;;;;;;5045030;28;20028;-48
2022/11/05 07:13:14;;;;;;;11.95;3.90;;;5.70;91.60;;;;;;5045068;28;20044;-48
2022/11/05 07:15:41;;;;;;;6.68;2.80;;;5.70;91.60;;;;;;5037023;28;20324;-48
2022/11/05 07:18:08;;;;;;;8.27;2.55;;;5.70;91.70;;;;;;5044913;28;20053;-49
2022/11/05 07:20:35;;;;;;;6.82;2.80;;;5.80;91.80;;;;;;5031004;28;20092;-49
2022/11/05 07:23:19;;;;;;;12.48;3.50;;;5.80;91.90;;;;;;5034544;28;20176;-49
2022/11/05 07:25:48;;;;;;;10.75;3.22;;;5.90;92.00;;;;;;5034474;28;20064;-49
2022/11/05 07:28:15;;;;;;;9.00;3.15;;;5.90;92.00;;;;;;5044143;28;20087;-48
2022/11/05 07:30:42;;;;;;;4.30;2.53;;;5.90;92.00;;;;;;5043134;28;20034;-52
2022/11/05 07:33:13;;;;;;;5.53;3.00;;;5.90;91.90;;;;;;5053599;28;20040;-49
2022/11/05 07:35:41;;;;;;;7.75;2.83;;;6.00;91.90;;;;;;5034953;28;20115;-50
2022/11/05 07:38:10;;;;;;;7.20;3.00;;;6.00;91.90;;;;;;5034460;28;20443;-48
2022/11/05 07:40:37;;;;;;;4.63;3.05;;;6.00;91.80;;;;;;5034006;28;20558;-47
2022/11/05 07:43:05;;;;;;;9.63;3.05;;;6.00;91.90;;;;;;5047361;28;20029;-50
2022/11/05 07:45:32;;;;;;;6.47;3.13;;;6.10;92.00;;;;;;5049412;28;20034;-49
2022/11/05 07:48:02;;;;;;;13.25;4.50;;;6.10;92.00;;;;;;5037081;28;20037;-50
2022/11/05 07:50:34;;;;;;;6.55;3.22;;;6.20;92.10;;;;;;5024699;28;20462;-48
2022/11/05 07:53:06;;;;;;;8.98;3.17;;;6.30;92.10;;;;;;5027599;28;20060;-52
2022/11/05 07:55:33;;;;;;;6.10;3.00;;;6.30;92.10;;;;;;5034511;28;20029;-51
2022/11/05 07:58:02;;;;;;;9.38;3.28;;;6.40;92.20;;;;;;5050128;28;20024;-50
2022/11/05 08:00:31;;;;;;;10.03;3.43;;;6.40;92.20;;;;;;5040781;28;20036;-47
2022/11/05 08:03:12;;;;;;;6.45;2.97;;;6.50;92.30;;;;;;5024669;28;20025;-49
2022/11/05 08:05:43;;;;;;;10.75;3.75;;;6.60;92.30;;;;;;5011791;28;20075;-48
2022/11/05 08:08:10;;;;;;;8.05;3.72;;;6.80;92.30;;;;;;5035497;28;20510;-50
2022/11/05 08:10:37;;;;;;;7.78;3.22;;;6.90;92.30;;;;;;5038907;28;20029;-48
2022/11/05 08:13:03;;;;;;;13.70;4.95;;;7.10;92.40;;;;;;5037952;28;20047;-49
2022/11/05 08:15:34;;;;;;;10.77;4.57;;;7.30;92.40;;;;;;5040869;28;20025;-52
2022/11/05 08:18:05;;;;;;;8.05;3.67;;;7.50;92.40;;;;;;5043251;28;20738;-50
2022/11/05 08:20:32;;;;;;;11.48;4.15;;;7.70;92.10;;;;;;5046616;28;20070;-49
2022/11/05 08:23:02;;;;;;;6.13;3.28;;;7.90;92.00;;;;;;5034064;28;20041;-47
2022/11/05 08:25:29;;;;;;;6.53;3.47;;;7.90;91.60;;;;;;5039463;28;20041;-47
2022/11/05 08:28:00;;;;;;;9.95;3.30;;;7.90;91.00;;;;;;5032266;28;20029;-50
2022/11/05 08:30:27;;;;;;;7.32;3.25;;;7.90;90.80;;;;;;5035163;28;20172;-47
2022/11/05 08:33:03;;;;;;;7.88;3.47;;;8.00;90.60;;;;;;5038691;28;20030;-49
2022/11/05 08:35:32;;;;;;;8.73;3.90;;;8.00;90.50;;;;;;5016457;28;20033;-48
2022/11/05 08:38:01;;;;;;;6.85;3.88;;;8.10;90.40;;;;;;5032695;28;20033;-47
2022/11/05 08:40:32;;;;;;;4.25;2.85;;;8.00;90.00;;;;;;5033461;28;20478;-47
2022/11/05 08:43:02;;;;;;;6.97;3.42;;;8.00;90.30;;;;;;5031495;28;20087;-49
2022/11/05 08:45:29;;;;;;;;;;;8.20;90.40;;;;;;5035458;28;20030;-49
2022/11/05 08:48:15;;;;;;;11.52;3.50;;;8.20;90.20;;;;;;5052799;28;19916;-47
2022/11/05 08:50:45;;;;;;;7.80;3.92;;;8.20;90.00;;;;;;5033785;28;20106;-47
2022/11/05 08:53:13;;;;;;;11.13;3.80;;;8.20;90.00;;;;;;5032365;28;20080;-47
2022/11/05 08:55:42;;;;;;;5.82;3.08;;;8.20;89.90;;;;;;5032640;28;20439;-50
2022/11/05 08:58:15;;;;;;;6.45;3.67;;;8.30;89.90;;;;;;5033311;28;20025;-48
2022/11/05 09:00:47;;;;;;;5.80;3.55;;;8.30;89.90;;;;;;5041814;28;20411;-47
2022/11/05 09:03:14;;;;;;;6.85;3.15;;;8.50;90.20;;;;;;5035718;28;20055;-47
2022/11/05 09:05:41;;;;;;;9.90;3.05;;;8.80;90.10;;;;;;5053179;28;20417;-45
2022/11/05 09:08:10;;;;;;;11.77;3.40;;;9.00;89.30;;;;;;5044501;28;20125;-46
2022/11/05 09:10:38;;;;;;;6.47;2.88;;;9.10;88.90;;;;;;5000252;28;20087;-50
2022/11/05 09:13:05;;;;;;;9.57;3.83;;;9.30;89.00;;;;;;5052076;28;20094;-46
2022/11/05 09:15:32;;;;;;;4.70;2.58;;;9.50;88.10;;;;;;5045470;28;20025;-46
2022/11/05 09:18:01;;;;;;;8.98;3.25;;;9.60;87.50;;;;;;5032695;28;20033;-45
2022/11/05 09:20:28;;;;;;;6.15;2.97;;;9.80;87.20;;;;;;5032103;28;20426;-45
2022/11/05 09:22:54;;;;;;;7.00;2.80;;;9.90;87.00;;;;;;5033008;28;20112;-46
2022/11/05 09:25:19;;;;;;;6.35;3.50;;;10.10;86.40;;;;;;5035467;28;20025;-49
2022/11/05 09:27:48;;;;;;;6.20;2.55;;;10.20;86.00;;;;;;5050950;28;20036;-45
2022/11/05 09:30:15;;;;;;;5.72;2.60;;;10.30;85.90;;;;;;5042621;28;20040;-46
2022/11/05 09:32:45;;;;;;;6.03;3.17;;;10.30;85.20;;;;;;5044394;28;20038;-46
2022/11/05 09:35:10;;;;;;;5.32;2.83;;;10.40;85.00;;;;;;5040110;28;20145;-46
2022/11/05 09:37:37;;;;;;;10.68;3.35;;;10.40;84.90;;;;;;5048225;28;20068;-48
2022/11/05 09:40:15;;;;;;;6.03;2.58;;;10.40;85.00;;;;;;5033411;28;20107;-46
2022/11/05 09:42:45;;;;;;;4.15;2.20;;;10.50;84.70;;;;;;5035747;28;20036;-51
2022/11/05 09:45:16;;;;;;;;;;;10.60;84.90;;;;;;5040010;28;20024;-50
2022/11/05 09:48:13;;;;;;;5.88;2.80;;;10.70;84.40;;;;;;5046140;28;19919;-46
2022/11/05 09:50:42;;;;;;;5.35;2.28;;;10.80;84.50;;;;;;5040107;28;20025;-47
2022/11/05 09:53:19;;;;;;;7.03;2.75;;;10.90;83.70;;;;;;5032064;28;20132;-47
2022/11/05 09:55:55;;;;;;;7.55;3.08;;;10.90;84.20;;;;;;5032280;28;20122;-47
2022/11/05 09:58:50;;;;;;;5.32;3.20;;;11.00;84.30;;;;;;5016746;28;20114;-48
2022/11/05 10:01:24;;;;;;;6.57;3.13;;;11.00;83.90;;;;;;5048146;28;20091;-47
2022/11/05 10:03:54;;;;;;;5.80;2.60;;;11.00;83.80;;;;;;5039097;28;20041;-47
2022/11/05 10:06:26;;;;;;;7.80;3.58;;;11.00;83.70;;;;;;5048164;28;20033;-47
2022/11/05 10:09:19;;;;;;;4.95;2.38;;;11.00;83.60;;;;;;5036021;28;20112;-48
2022/11/05 10:11:53;;;;;;;4.70;2.58;;;11.10;83.90;;;;;;5035817;28;20033;-51
2022/11/05 10:14:27;;;;;;;6.22;2.63;;;11.10;83.70;;;;;;5036812;28;20520;-49
2022/11/05 10:17:02;;;;;;;4.25;2.72;;;11.10;83.10;;;;;;5036124;28;20037;-49
2022/11/05 10:19:40;;;;;;;7.35;2.67;;;11.10;83.70;;;;;;5019069;28;20058;-49
2022/11/05 10:22:17;;;;;;;6.18;2.67;;;11.10;83.60;;;;;;5034418;28;20494;-47
2022/11/05 10:24:47;;;;;;;4.68;3.13;;;11.20;83.90;;;;;;5048632;28;20094;-48
2022/11/05 10:27:37;;;;;;;6.45;3.15;;;11.10;83.60;;;;;;5034265;28;20424;-47
2022/11/05 10:30:03;;;;;;;4.53;2.38;;;11.30;84.10;;;;;;5038712;28;20216;-47
2022/11/05 10:32:36;;;;;;;4.93;2.15;;;11.30;83.50;;;;;;5036505;28;20022;-49
2022/11/05 10:35:07;;;;;;;4.25;2.30;;;11.40;83.00;;;;;;5002750;28;20355;-47
2022/11/05 10:37:35;;;;;;;8.77;2.63;;;11.40;83.30;;;;;;5035432;28;20484;-48
2022/11/05 10:40:31;;;;;;;5.95;2.20;;;11.40;83.10;;;;;;5003114;28;20034;-47
2022/11/05 10:43:08;;;;;;;4.60;1.88;;;11.40;81.90;;;;;;5017052;28;20447;-50
2022/11/05 10:45:58;;;;;;;6.10;2.58;;;11.40;82.50;;;;;;5038513;28;20033;-47
2022/11/05 10:49:01;;;;;;;4.90;2.15;;;11.40;83.00;;;;;;5034873;28;20025;-49
2022/11/05 10:51:32;;;;;;;6.85;2.13;;;11.40;82.60;;;;;;5036896;28;20040;-47
2022/11/05 10:54:12;;;;;;;5.22;3.03;;;11.50;82.30;;;;;;5056173;28;20025;-48
2022/11/05 10:56:40;;;;;;;5.43;2.63;;;11.40;82.20;;;;;;5034035;28;20124;-49
2022/11/05 10:59:25;;;;;;;4.25;2.08;;;11.40;82.50;;;;;;5018467;28;20128;-47
2022/11/05 11:02:15;;;;;;;6.47;3.15;;;11.40;82.80;;;;;;5036900;28;20041;-48
2022/11/05 11:04:40;;;;;;;5.82;2.63;;;11.50;82.60;;;;;;5035878;28;20029;-47
2022/11/05 11:07:22;;;;;;;8.32;3.40;;;11.60;82.80;;;;;;5034393;28;20378;-47
2022/11/05 11:09:49;;;;;;;5.22;2.40;;;11.60;82.50;;;;;;5034216;28;20461;-50
2022/11/05 11:12:37;;;;;;;7.57;2.58;;;11.60;82.30;;;;;;5040752;28;20087;-48
2022/11/05 11:15:13;;;;;;;5.55;2.85;;;11.70;82.60;;;;;;5036989;28;20110;-47
2022/11/05 11:17:40;;;;;;;10.52;2.75;;;11.70;82.60;;;;;;5042587;28;20022;-47
2022/11/05 11:20:18;;;;;;;7.35;2.65;;;11.60;82.10;;;;;;5042029;28;20444;-47
2022/11/05 11:23:02;;;;;;;6.22;2.53;;;11.60;82.50;;;;;;5040121;28;20034;-48
2022/11/05 11:25:52;;;;;;;4.90;2.35;;;11.70;82.80;;;;;;5053592;28;20060;-49
2022/11/05 11:28:31;;;;;;;7.00;2.75;;;11.60;82.40;;;;;;5032841;28;20095;-47
2022/11/05 11:31:21;;;;;;;8.73;3.17;;;11.70;82.30;;;;;;5036119;28;20125;-50
2022/11/05 11:33:51;;;;;;;;;;;11.70;81.60;;;;;;5034562;28;20347;-47
2022/11/05 11:36:18;;;;;;;;;;;11.80;82.30;;;;;;5035667;28;19909;-47
2022/11/05 11:38:48;;;;;;;6.10;2.28;;;11.80;81.80;;;;;;5034603;28;20284;-47
2022/11/05 11:41:30;;;;;;;7.38;2.40;;;11.90;82.30;;;;;;5033527;28;20029;-47
2022/11/05 11:44:06;;;;;;;10.77;2.55;;;11.80;81.70;;;;;;5035600;28;20609;-51
2022/11/05 11:46:35;;;;;;;6.40;2.63;;;11.90;81.10;;;;;;5030434;28;20068;-47
2022/11/05 11:49:05;;;;;;;8.48;3.47;;;11.90;80.60;;;;;;5039936;28;20078;-48
2022/11/05 11:51:43;;;;;;;7.22;1.95;;;11.80;81.00;;;;;;5048547;28;20040;-48
2022/11/05 11:54:23;;;;;;;5.35;2.05;;;11.90;81.70;;;;;;5020222;28;20095;-49
2022/11/05 11:56:49;;;;;;;5.22;2.50;;;12.00;81.50;;;;;;5045627;28;20029;-47
2022/11/05 11:59:30;;;;;;;6.22;2.83;;;12.10;81.70;;;;;;5042440;28;20037;-46
2022/11/05 12:02:30;;;;;;;6.00;2.20;;;12.20;80.30;;;;;;5034429;28;20045;-46
2022/11/05 12:05:13;;;;;;;5.80;2.33;;;12.20;80.40;;;;;;5034689;28;20037;-47
2022/11/05 12:08:04;;;;;;;7.07;2.67;;;12.10;80.40;;;;;;5036100;28;20033;-49
2022/11/05 12:10:55;;;;;;;6.63;2.47;;;12.00;80.60;;;;;;5034384;28;20134;-48
2022/11/05 12:13:30;;;;;;;6.47;2.13;;;11.90;80.30;;;;;;5043362;28;20029;-47
2022/11/05 12:16:39;;;;;;;6.47;2.45;;;12.10;80.80;;;;;;5043010;28;20041;-49
2022/11/05 12:19:27;;;;;;;5.80;2.30;;;12.20;80.70;;;;;;5033843;28;20354;-50
2022/11/05 12:22:35;;;;;;;7.10;2.70;;;12.20;80.30;;;;;;5043908;28;20041;-48
2022/11/05 12:25:29;;;;;;;6.80;2.20;;;12.10;80.20;;;;;;5039510;28;20149;-47
2022/11/05 12:28:32;;;;;;;6.88;2.60;;;12.00;80.40;;;;;;5043427;28;20040;-46
2022/11/05 12:31:27;;;;;;;8.32;2.20;;;12.00;80.80;;;;;;5041479;28;20056;-47
2022/11/05 12:34:05;;;;;;;4.85;2.47;;;12.00;80.70;;;;;;5049069;28;20029;-50
2022/11/05 12:37:10;;;;;;;6.63;2.10;;;12.00;80.80;;;;;;5045798;28;20505;-47
2022/11/05 12:40:03;;;;;;;5.30;2.30;;;12.10;80.80;;;;;;5032683;28;20041;-47
2022/11/05 12:42:51;;;;;;;4.88;1.98;;;12.00;80.50;;;;;;5039017;28;20045;-50
2022/11/05 12:45:54;;;;;;;4.82;2.00;;;11.90;80.00;;;;;;5040628;28;20029;-46
2022/11/05 12:48:48;;;;;;;7.65;2.10;;;11.90;80.20;;;;;;5041053;28;20020;-47
2022/11/05 12:51:33;;;;;;;6.70;1.67;;;11.80;80.70;;;;;;5049812;28;20469;-48
2022/11/05 12:54:30;;;;;;;8.57;1.80;;;11.70;80.90;;;;;;5038301;28;20108;-46
2022/11/05 12:57:03;;;;;;;5.25;1.95;;;11.70;81.60;;;;;;5032215;28;20517;-47
2022/11/05 12:59:45;;;;;;;7.53;3.17;;;11.60;81.80;;;;;;5035788;28;20034;-48
2022/11/05 13:02:42;;;;;;;6.85;2.00;;;11.60;82.00;;;;;;5034975;28;20485;-46
2022/11/05 13:05:23;;;;;;;6.55;1.70;;;11.60;82.40;;;;;;5037532;28;20033;-47
2022/11/05 13:07:55;;;;;;;6.93;2.17;;;11.70;82.60;;;;;;5032238;28;20541;-47
2022/11/05 13:10:48;;;;;;;7.00;2.28;;;11.80;82.40;;;;;;5031493;28;20036;-47
2022/11/05 13:13:42;;;;;;;10.40;5.25;;;11.80;82.50;;;;;;5036127;28;20041;-47
2022/11/05 13:16:34;;;;;;;4.07;2.22;;;11.90;82.20;;;;;;5045548;28;20038;-49
2022/11/05 13:19:36;;;;;;;14.07;10.30;;;11.90;82.10;;;;;;5047250;28;20375;-48
2022/11/05 13:22:42;;;;;;;6.32;3.38;;;11.90;82.20;;;;;;5037843;28;20029;-48
2022/11/05 13:25:28;;;;;;;6.80;3.60;;;11.90;82.70;;;;;;5026859;28;20037;-51
2022/11/05 13:28:32;;;;;;;5.88;2.90;;;11.90;82.70;;;;;;5014968;28;20461;-46
2022/11/05 13:31:11;;;;;;;4.53;2.22;;;11.90;82.80;;;;;;5036701;28;20722;-47
2022/11/05 13:33:46;;;;;;;4.03;2.50;;;11.90;82.70;;;;;;5032626;28;20036;-48
2022/11/05 13:39:26;;;;;;;7.07;2.65;;;11.90;82.50;;;;;;5052886;28;20072;-47
2022/11/05 13:42:19;;;;;;;10.57;3.85;;;11.80;82.40;;;;;;5039036;28;20038;-47
2022/11/05 13:45:04;;;;;;;6.70;2.63;;;11.90;82.70;;;;;;5035150;28;20033;-46
2022/11/05 13:47:49;;;;;;;8.98;2.65;;;11.90;82.90;;;;;;5031941;28;20044;-49
2022/11/05 13:50:40;;;;;;;7.07;2.20;;;11.90;82.70;;;;;;5031615;28;20060;-48
2022/11/05 13:53:30;;;;;;;4.05;2.33;;;11.80;82.80;;;;;;5040768;28;20057;-46
2022/11/05 13:56:43;;;;;;;5.85;2.42;;;11.80;82.90;;;;;;5032587;28;20037;-46
2022/11/05 13:59:28;;;;;;;7.25;3.13;;;11.80;82.90;;;;;;5040729;28;20021;-46
2022/11/05 14:02:22;;;;;;;8.52;2.53;;;11.70;82.70;;;;;;5034729;28;20163;-49
2022/11/05 14:04:56;;;;;;;6.80;2.30;;;11.80;82.50;;;;;;5031790;28;20045;-46
2022/11/05 14:07:36;;;;;;;5.05;2.40;;;11.70;82.60;;;;;;5031609;28;20041;-48
2022/11/05 14:10:27;;;;;;;10.10;2.63;;;11.70;82.50;;;;;;5031454;28;20037;-50
2022/11/05 14:12:56;;;;;;;8.23;2.60;;;11.70;82.50;;;;;;5033065;28;20033;-46
2022/11/05 14:15:28;;;;;;;10.37;2.80;;;11.70;82.70;;;;;;5033259;28;20104;-48
2022/11/05 14:18:28;;;;;;;7.50;2.50;;;11.70;82.80;;;;;;5032620;28;20307;-46
2022/11/05 14:21:04;;;;;;;6.60;2.80;;;11.60;82.90;;;;;;5031716;28;20490;-46
2022/11/05 14:23:49;;;;;;;9.32;2.78;;;11.60;83.00;;;;;;5015078;28;20026;-48
2022/11/05 14:26:22;;;;;;;6.00;2.40;;;11.60;82.60;;;;;;5031420;28;20034;-46